createdAt,value
2022-11-30T00:03:01.664Z,6.70
2022-11-30T00:06:43.471Z,6.70
2022-11-30T00:10:25.235Z,6.70
2022-11-30T00:14:07.078Z,6.70
2022-11-30T00:17:48.953Z,6.80
2022-11-30T00:21:30.859Z,6.70
2022-11-30T00:25:12.683Z,6.70
2022-11-30T00:28:54.470Z,6.70
2022-11-30T00:32:36.195Z,6.60
2022-11-30T00:36:20.701Z,6.60
2022-11-30T00:40:02.442Z,6.60
2022-11-30T00:43:44.931Z,6.60
2022-11-30T00:47:26.682Z,6.60
2022-11-30T00:51:10.168Z,6.60
2022-11-30T00:54:51.930Z,6.70
2022-11-30T00:58:33.753Z,6.70
2022-11-30T01:02:15.607Z,6.70
2022-11-30T01:06:02.771Z,6.70
2022-11-30T01:09:44.533Z,6.70
2022-11-30T01:13:26.290Z,6.70
2022-11-30T01:17:08.117Z,6.70
2022-11-30T01:20:49.962Z,6.60
2022-11-30T01:24:31.690Z,6.50
2022-11-30T01:28:13.474Z,6.50
2022-11-30T01:31:55.212Z,6.50
2022-11-30T01:35:37.011Z,6.50
2022-11-30T01:39:18.759Z,6.50
2022-11-30T01:43:00.522Z,6.60
2022-11-30T01:46:54.141Z,6.60
2022-11-30T01:50:37.126Z,6.60
2022-11-30T01:54:24.958Z,6.60
2022-11-30T01:58:18.082Z,6.60
2022-11-30T02:01:59.898Z,6.70
2022-11-30T02:05:42.344Z,6.60
2022-11-30T02:09:24.777Z,6.60
2022-11-30T02:13:12.135Z,6.60
2022-11-30T02:16:56.541Z,6.70
2022-11-30T02:21:01.052Z,6.70
2022-11-30T02:25:01.090Z,6.70
2022-11-30T02:29:10.246Z,6.60
2022-11-30T02:33:03.570Z,6.70
2022-11-30T02:36:47.453Z,6.70
2022-11-30T02:40:29.319Z,6.70
2022-11-30T02:44:12.563Z,6.70
2022-11-30T02:48:09.093Z,6.70
2022-11-30T02:51:52.434Z,6.70
2022-11-30T02:55:34.279Z,6.70
2022-11-30T02:59:16.126Z,6.70
2022-11-30T03:02:58.047Z,6.80
2022-11-30T03:06:39.851Z,6.70
2022-11-30T03:10:21.656Z,6.70
2022-11-30T03:14:04.265Z,6.70
2022-11-30T03:17:45.969Z,6.70
2022-11-30T03:21:28.650Z,6.70
2022-11-30T03:25:10.383Z,6.70
2022-11-30T03:28:52.158Z,6.70
2022-11-30T03:32:34.333Z,6.70
2022-11-30T03:36:16.086Z,6.70
2022-11-30T03:39:58.520Z,6.70
2022-11-30T03:43:41.130Z,6.70
2022-11-30T03:47:22.881Z,6.70
2022-11-30T03:51:05.366Z,6.70
2022-11-30T03:54:47.353Z,6.70
2022-11-30T03:58:29.871Z,6.80
2022-11-30T04:02:11.725Z,6.80
2022-11-30T04:05:53.798Z,6.80
2022-11-30T04:09:35.538Z,6.80
2022-11-30T04:13:17.438Z,6.70
2022-11-30T04:16:59.218Z,6.70
2022-11-30T04:20:41.698Z,6.70
2022-11-30T04:24:23.444Z,6.70
2022-11-30T04:28:05.187Z,6.70
2022-11-30T04:31:47.014Z,6.60
2022-11-30T04:35:28.972Z,6.70
2022-11-30T04:39:10.786Z,6.70
2022-11-30T04:42:52.522Z,6.70
2022-11-30T04:46:34.278Z,6.70
2022-11-30T04:50:16.025Z,6.70
2022-11-30T04:53:57.743Z,6.70
2022-11-30T04:57:39.677Z,6.70
2022-11-30T05:01:21.465Z,6.70
2022-11-30T05:05:03.294Z,6.70
2022-11-30T05:08:45.092Z,6.70
2022-11-30T05:12:26.824Z,6.80
2022-11-30T05:16:10.680Z,6.80
2022-11-30T05:19:52.566Z,6.80
2022-11-30T05:23:34.309Z,6.70
2022-11-30T05:27:22.160Z,6.70
2022-11-30T05:31:05.270Z,6.70
2022-11-30T05:34:51.176Z,6.70
2022-11-30T05:38:33.666Z,6.70
2022-11-30T05:42:15.507Z,6.70
2022-11-30T05:46:05.266Z,6.60
2022-11-30T05:49:47.252Z,6.60
2022-11-30T05:53:28.998Z,6.70
2022-11-30T05:57:10.850Z,6.60
2022-11-30T06:00:52.583Z,6.60
2022-11-30T06:04:34.735Z,6.60
2022-11-30T06:08:16.448Z,6.60
2022-11-30T06:11:58.239Z,6.60
2022-11-30T06:15:41.130Z,6.60
2022-11-30T06:19:22.871Z,6.60
2022-11-30T06:23:04.626Z,6.60
2022-11-30T06:26:46.352Z,6.60
2022-11-30T06:30:28.209Z,6.70
2022-11-30T06:34:09.946Z,6.60
2022-11-30T06:37:51.704Z,6.60
2022-11-30T06:41:33.458Z,6.60
2022-11-30T06:45:15.329Z,6.60
2022-11-30T06:48:57.066Z,6.50
2022-11-30T06:52:38.818Z,6.50
2022-11-30T06:56:21.065Z,6.50
2022-11-30T07:00:03.889Z,6.40
2022-11-30T07:03:45.859Z,6.40
2022-11-30T07:07:30.455Z,6.40
2022-11-30T07:11:13.032Z,6.40
2022-11-30T07:14:57.833Z,6.40
2022-11-30T07:18:39.610Z,6.40
2022-11-30T07:22:21.381Z,6.50
2022-11-30T07:26:06.366Z,6.30
2022-11-30T07:29:48.977Z,6.20
2022-11-30T07:33:31.521Z,6.20
2022-11-30T07:37:13.270Z,6.10
2022-11-30T07:40:55.046Z,6.00
2022-11-30T07:44:36.818Z,6.00
2022-11-30T07:48:18.810Z,6.00
2022-11-30T07:52:00.585Z,6.00
2022-11-30T07:55:42.889Z,6.00
2022-11-30T07:59:24.621Z,6.00
2022-11-30T08:03:06.472Z,6.00
2022-11-30T08:06:48.208Z,6.00
2022-11-30T08:10:29.908Z,6.00
2022-11-30T08:14:13.632Z,6.00
2022-11-30T08:17:55.449Z,6.00
2022-11-30T08:21:38.111Z,6.00
2022-11-30T08:25:19.966Z,6.00
2022-11-30T08:29:02.009Z,6.00
2022-11-30T08:32:43.706Z,6.00
2022-11-30T08:36:26.653Z,6.00
2022-11-30T08:40:08.933Z,6.00
2022-11-30T08:43:51.281Z,6.10
2022-11-30T08:47:33.072Z,6.10
2022-11-30T08:51:17.427Z,6.20
2022-11-30T08:54:59.129Z,6.20
2022-11-30T08:58:41.346Z,6.20
2022-11-30T09:02:23.126Z,6.30
2022-11-30T09:06:10.968Z,6.30
2022-11-30T09:09:52.682Z,6.30
2022-11-30T09:13:35.661Z,6.50
2022-11-30T09:17:17.476Z,6.50
2022-11-30T09:21:11.216Z,6.50
2022-11-30T09:24:53.016Z,6.50
2022-11-30T09:28:35.962Z,6.60
2022-11-30T09:32:17.711Z,6.60
2022-11-30T09:36:04.203Z,6.60
2022-11-30T09:39:45.920Z,6.70
2022-11-30T09:43:45.954Z,6.70
2022-11-30T09:47:46.497Z,6.80
2022-11-30T09:51:42.525Z,6.80
2022-11-30T09:55:42.668Z,6.80
2022-11-30T09:59:29.785Z,6.80
2022-11-30T10:03:13.217Z,6.90
2022-11-30T10:07:38.401Z,6.90
2022-11-30T10:11:38.522Z,7.00
2022-11-30T10:15:57.903Z,7.00
2022-11-30T10:19:59.595Z,7.10
2022-11-30T10:24:04.454Z,7.10
2022-11-30T10:28:12.736Z,7.10
2022-11-30T10:32:15.469Z,7.10
2022-11-30T10:36:03.209Z,7.20
2022-11-30T10:39:47.655Z,7.20
2022-11-30T10:43:51.477Z,7.20
2022-11-30T10:47:37.224Z,7.20
2022-11-30T10:51:19.374Z,7.20
2022-11-30T10:55:04.883Z,7.30
2022-11-30T10:59:00.931Z,7.30
2022-11-30T11:02:45.956Z,7.30
2022-11-30T11:06:27.774Z,7.30
2022-11-30T11:10:16.470Z,7.40
2022-11-30T11:14:16.117Z,7.40
2022-11-30T11:18:16.115Z,7.50
2022-11-30T11:21:57.929Z,7.50
2022-11-30T11:25:43.242Z,7.50
2022-11-30T11:29:31.484Z,7.60
2022-11-30T11:33:13.218Z,7.60
2022-11-30T11:37:18.596Z,7.70
2022-11-30T11:41:07.140Z,7.80
2022-11-30T11:44:54.735Z,7.80
2022-11-30T11:48:40.474Z,7.80
2022-11-30T11:52:22.717Z,7.90
2022-11-30T11:56:23.265Z,8.00
2022-11-30T12:00:17.044Z,8.00
2022-11-30T12:04:27.164Z,8.10
2022-11-30T12:08:38.695Z,8.20
2022-11-30T12:12:20.446Z,8.20
2022-11-30T12:16:30.491Z,8.30
2022-11-30T12:20:14.935Z,8.40
2022-11-30T12:24:10.405Z,8.50
2022-11-30T12:28:26.211Z,8.50
2022-11-30T12:32:30.965Z,8.70
2022-11-30T12:36:38.827Z,8.70
2022-11-30T12:40:30.104Z,8.90
2022-11-30T12:44:30.126Z,8.90
2022-11-30T12:48:23.990Z,8.90
2022-11-30T12:52:30.632Z,8.80
2022-11-30T12:56:18.510Z,8.80
2022-11-30T13:00:17.180Z,8.80
2022-11-30T13:04:08.916Z,8.80
2022-11-30T13:08:13.508Z,8.90
2022-11-30T13:12:05.816Z,8.90
2022-11-30T13:15:49.789Z,8.90
2022-11-30T13:19:49.471Z,8.90
2022-11-30T13:23:44.617Z,9.00
2022-11-30T13:27:38.333Z,9.00
2022-11-30T13:31:25.809Z,9.10
2022-11-30T13:35:29.646Z,9.10
2022-11-30T13:39:19.789Z,9.20
2022-11-30T13:43:01.565Z,9.20
2022-11-30T13:46:53.383Z,9.30
2022-11-30T13:50:38.672Z,9.40
2022-11-30T13:54:39.334Z,9.50
2022-11-30T13:58:21.282Z,9.60
2022-11-30T14:02:31.278Z,9.70
2022-11-30T14:06:46.065Z,9.90
2022-11-30T14:10:39.260Z,9.90
2022-11-30T14:14:45.780Z,9.90
2022-11-30T14:18:41.497Z,9.80
2022-11-30T14:22:24.998Z,9.80
2022-11-30T14:26:13.438Z,9.70
2022-11-30T14:30:01.044Z,9.60
2022-11-30T14:33:54.624Z,9.60
2022-11-30T14:37:54.688Z,9.50
2022-11-30T14:41:41.058Z,9.40
2022-11-30T14:45:28.442Z,9.40
2022-11-30T14:49:20.502Z,9.40
2022-11-30T14:53:03.877Z,9.40
2022-11-30T14:56:50.303Z,9.40
2022-11-30T15:00:38.765Z,9.30
2022-11-30T15:04:20.735Z,9.30
2022-11-30T15:08:02.767Z,9.20
2022-11-30T15:11:47.313Z,9.20
2022-11-30T15:15:31.222Z,9.10
2022-11-30T15:19:21.432Z,9.10
2022-11-30T15:23:03.458Z,9.00
2022-11-30T15:26:50.398Z,9.00
2022-11-30T15:30:35.006Z,9.00
2022-11-30T15:34:25.973Z,8.90
2022-11-30T15:38:10.876Z,9.00
2022-11-30T15:41:58.712Z,8.90
2022-11-30T15:45:52.959Z,8.90
2022-11-30T15:49:36.340Z,8.90
2022-11-30T15:53:47.232Z,8.90
2022-11-30T15:57:59.384Z,8.80
2022-11-30T16:02:04.852Z,8.80
2022-11-30T16:05:57.086Z,8.70
2022-11-30T16:09:38.888Z,8.70
2022-11-30T16:13:22.571Z,8.60
2022-11-30T16:17:08.970Z,8.50
2022-11-30T16:20:54.511Z,8.50
2022-11-30T16:24:37.146Z,8.50
2022-11-30T16:28:19.755Z,8.40
2022-11-30T16:32:01.547Z,8.40
2022-11-30T16:35:56.545Z,8.30
2022-11-30T16:39:38.251Z,8.30
2022-11-30T16:43:20.310Z,8.10
2022-11-30T16:47:02.030Z,8.10
2022-11-30T16:50:44.635Z,8.00
2022-11-30T16:54:26.327Z,8.00
2022-11-30T16:58:08.160Z,8.10
2022-11-30T17:01:53.321Z,8.00
2022-11-30T17:05:36.238Z,7.90
2022-11-30T17:09:19.622Z,7.90
2022-11-30T17:13:01.301Z,7.90
2022-11-30T17:16:43.057Z,7.90
2022-11-30T17:20:25.920Z,7.90
2022-11-30T17:24:07.755Z,7.90
2022-11-30T17:27:50.449Z,8.00
2022-11-30T17:31:32.990Z,8.00
2022-11-30T17:35:16.138Z,8.00
2022-11-30T17:38:57.833Z,7.90
2022-11-30T17:42:39.889Z,7.90
2022-11-30T17:46:22.588Z,7.80
2022-11-30T17:50:06.758Z,7.80
2022-11-30T17:53:49.474Z,7.80
2022-11-30T17:57:31.249Z,7.80
2022-11-30T18:01:17.540Z,7.90
2022-11-30T18:04:59.542Z,7.90
2022-11-30T18:08:41.973Z,7.90
2022-11-30T18:12:23.820Z,8.00
2022-11-30T18:16:13.306Z,7.90
2022-11-30T18:19:55.253Z,8.00
2022-11-30T18:23:37.484Z,8.00
2022-11-30T18:27:19.298Z,8.00
2022-11-30T18:31:01.250Z,8.00
2022-11-30T18:34:49.186Z,8.00
2022-11-30T18:38:37.067Z,8.00
2022-11-30T18:42:20.694Z,7.90
2022-11-30T18:46:04.021Z,7.80
2022-11-30T18:49:45.846Z,7.70
2022-11-30T18:53:27.612Z,7.50
2022-11-30T18:57:09.400Z,7.40
2022-11-30T19:00:51.157Z,7.30
2022-11-30T19:04:32.908Z,7.30
2022-11-30T19:08:14.786Z,7.10
2022-11-30T19:11:58.044Z,7.10
2022-11-30T19:15:41.144Z,7.00
2022-11-30T19:19:23.023Z,6.90
2022-11-30T19:23:04.782Z,6.80
2022-11-30T19:26:46.684Z,6.70
2022-11-30T19:30:28.425Z,6.70
2022-11-30T19:34:12.899Z,6.60
2022-11-30T19:37:55.150Z,6.50
2022-11-30T19:41:36.877Z,6.50
2022-11-30T19:45:18.734Z,6.50
2022-11-30T19:49:02.323Z,6.50
2022-11-30T19:52:44.191Z,6.40
2022-11-30T19:56:27.612Z,6.30
2022-11-30T20:00:09.990Z,6.30
2022-11-30T20:03:53.572Z,6.20
2022-11-30T20:07:36.298Z,6.10
2022-11-30T20:11:18.147Z,6.00
2022-11-30T20:14:59.976Z,6.00
2022-11-30T20:18:45.989Z,6.00
2022-11-30T20:22:28.506Z,5.90
2022-11-30T20:26:29.963Z,5.90
2022-11-30T20:30:12.222Z,5.80
2022-11-30T20:33:53.975Z,5.80
2022-11-30T20:37:38.582Z,5.70
2022-11-30T20:41:25.872Z,5.70
2022-11-30T20:45:07.906Z,5.60
2022-11-30T20:48:50.690Z,5.60
2022-11-30T20:52:32.566Z,5.50
2022-11-30T20:56:15.272Z,5.50
2022-11-30T20:59:57.088Z,5.50
2022-11-30T21:03:39.710Z,5.50
2022-11-30T21:07:21.494Z,5.40
2022-11-30T21:11:14.909Z,5.40
2022-11-30T21:14:56.653Z,5.40
2022-11-30T21:18:40.803Z,5.40
2022-11-30T21:22:22.533Z,5.30
2022-11-30T21:26:06.159Z,5.30
2022-11-30T21:29:47.973Z,5.30
2022-11-30T21:33:29.738Z,5.40
2022-11-30T21:37:11.638Z,5.30
2022-11-30T21:40:55.406Z,5.30
2022-11-30T21:44:37.147Z,5.20
2022-11-30T21:48:20.362Z,5.20
2022-11-30T21:52:02.082Z,5.20
2022-11-30T21:55:43.815Z,5.30
2022-11-30T21:59:25.699Z,5.30
2022-11-30T22:03:07.507Z,5.30
2022-11-30T22:06:49.276Z,5.40
2022-11-30T22:10:32.022Z,5.40
2022-11-30T22:14:15.990Z,5.40
2022-11-30T22:17:57.754Z,5.40
2022-11-30T22:21:39.791Z,5.50
2022-11-30T22:25:21.567Z,5.50
2022-11-30T22:29:07.478Z,5.50
2022-11-30T22:32:49.992Z,5.60
2022-11-30T22:36:33.663Z,5.60
2022-11-30T22:40:15.467Z,5.60
2022-11-30T22:43:58.448Z,5.60
2022-11-30T22:47:40.174Z,5.60
2022-11-30T22:51:26.858Z,5.60
2022-11-30T22:55:09.300Z,5.60
2022-11-30T22:58:54.137Z,5.60
2022-11-30T23:02:35.950Z,5.50
2022-11-30T23:06:20.369Z,5.50
2022-11-30T23:10:02.287Z,5.60
2022-11-30T23:13:44.096Z,5.50
2022-11-30T23:17:25.847Z,5.50
2022-11-30T23:21:14.735Z,5.50
2022-11-30T23:24:56.454Z,5.50
2022-11-30T23:28:41.002Z,5.40
2022-11-30T23:32:22.961Z,5.40
2022-11-30T23:36:06.590Z,5.40
2022-11-30T23:39:48.547Z,5.30
2022-11-30T23:43:30.794Z,5.30
2022-11-30T23:47:18.008Z,5.30
2022-11-30T23:51:00.606Z,5.30
2022-11-30T23:54:42.379Z,5.30
2022-11-30T23:58:24.555Z,5.30
